createdAt,value
2022-08-03T00:00:36.192Z,1012.87
2022-08-03T00:01:36.238Z,1012.94
2022-08-03T00:02:36.262Z,1012.87
2022-08-03T00:03:36.170Z,1012.90
2022-08-03T00:04:36.135Z,1012.84
2022-08-03T00:05:36.102Z,1012.89
2022-08-03T00:06:37.289Z,1012.84
2022-08-03T00:07:36.114Z,1012.86
2022-08-03T00:08:40.190Z,1012.86
2022-08-03T00:09:36.110Z,1012.85
2022-08-03T00:10:36.062Z,1012.81
2022-08-03T00:11:36.041Z,1012.82
2022-08-03T00:12:36.038Z,1012.82
2022-08-03T00:13:36.242Z,1012.82
2022-08-03T00:14:35.994Z,1012.77
2022-08-03T00:15:36.065Z,1012.84
2022-08-03T00:16:35.979Z,1012.81
2022-08-03T00:17:53.293Z,1012.81
2022-08-03T00:18:36.973Z,1012.81
2022-08-03T00:19:36.111Z,1012.80
2022-08-03T00:20:35.981Z,1012.84
2022-08-03T00:21:35.919Z,1012.80
2022-08-03T00:22:35.951Z,1012.77
2022-08-03T00:23:52.363Z,1012.84
2022-08-03T00:24:36.890Z,1012.84
2022-08-03T00:25:35.949Z,1012.78
2022-08-03T00:26:35.839Z,1012.80
2022-08-03T00:27:35.903Z,1012.77
2022-08-03T00:28:35.891Z,1012.73
2022-08-03T00:29:59.340Z,1012.73
2022-08-03T00:30:36.788Z,1012.75
2022-08-03T00:31:51.609Z,1012.75
2022-08-03T00:32:36.846Z,1012.75
2022-08-03T00:33:58.244Z,1012.73
2022-08-03T00:34:57.818Z,1012.74
2022-08-03T00:35:50.718Z,1012.76
2022-08-03T00:36:36.758Z,1012.69
2022-08-03T00:37:41.030Z,1012.66
2022-08-03T00:38:36.702Z,1012.73
2022-08-03T00:39:35.676Z,1012.69
2022-08-03T00:40:35.666Z,1012.71
2022-08-03T00:41:35.645Z,1012.72
2022-08-03T00:42:38.453Z,1012.68
2022-08-03T00:43:36.672Z,1012.72
2022-08-03T00:44:35.709Z,1012.65
2022-08-03T00:45:35.718Z,1012.67
2022-08-03T00:46:35.574Z,1012.69
2022-08-03T00:47:35.604Z,1012.68
2022-08-03T00:48:35.634Z,1012.64
2022-08-03T00:49:35.683Z,1012.69
2022-08-03T00:50:36.250Z,1012.71
2022-08-03T00:51:35.552Z,1012.69
2022-08-03T00:52:35.581Z,1012.68
2022-08-03T00:53:35.488Z,1012.68
2022-08-03T00:54:36.166Z,1012.73
2022-08-03T00:55:35.457Z,1012.69
2022-08-03T00:56:35.456Z,1012.71
2022-08-03T00:57:35.747Z,1012.68
2022-08-03T00:58:35.509Z,1012.64
2022-08-03T00:59:35.435Z,1012.69
2022-08-03T01:00:35.418Z,1012.65
2022-08-03T01:01:35.457Z,1012.64
2022-08-03T01:02:36.143Z,1012.64
2022-08-03T01:03:35.403Z,1012.60
2022-08-03T01:04:35.440Z,1012.59
2022-08-03T01:05:35.392Z,1012.61
2022-08-03T01:06:35.415Z,1012.60
2022-08-03T01:07:35.384Z,1012.60
2022-08-03T01:08:35.450Z,1012.63
2022-08-03T01:09:35.369Z,1012.62
2022-08-03T01:10:35.303Z,1012.60
2022-08-03T01:11:35.309Z,1012.55
2022-08-03T01:12:35.287Z,1012.67
2022-08-03T01:14:01.176Z,1012.57
2022-08-03T01:14:36.334Z,1012.63
2022-08-03T01:15:35.210Z,1012.58
2022-08-03T01:16:35.768Z,1012.62
2022-08-03T01:17:35.315Z,1012.64
2022-08-03T01:18:35.232Z,1012.61
2022-08-03T01:19:35.334Z,1012.55
2022-08-03T01:20:35.160Z,1012.63
2022-08-03T01:21:35.369Z,1012.65
2022-08-03T01:22:35.213Z,1012.64
2022-08-03T01:23:35.095Z,1012.57
2022-08-03T01:24:35.169Z,1012.62
2022-08-03T01:25:35.180Z,1012.64
2022-08-03T01:26:35.061Z,1012.63
2022-08-03T01:27:35.058Z,1012.61
2022-08-03T01:28:35.720Z,1012.62
2022-08-03T01:29:35.051Z,1012.52
2022-08-03T01:30:35.035Z,1012.54
2022-08-03T01:31:35.025Z,1012.58
2022-08-03T01:32:58.207Z,1012.55
2022-08-03T01:33:35.962Z,1012.56
2022-08-03T01:34:34.992Z,1012.54
2022-08-03T01:35:38.268Z,1012.63
2022-08-03T01:36:34.937Z,1012.53
2022-08-03T01:37:34.935Z,1012.58
2022-08-03T01:38:35.048Z,1012.58
2022-08-03T01:39:34.940Z,1012.60
2022-08-03T01:40:35.612Z,1012.61
2022-08-03T01:41:34.939Z,1012.55
2022-08-03T01:42:35.853Z,1012.63
2022-08-03T01:44:27.918Z,1012.59
2022-08-03T01:44:35.838Z,1012.60
2022-08-03T01:45:35.010Z,1012.54
2022-08-03T01:46:34.879Z,1012.55
2022-08-03T01:47:35.095Z,1012.54
2022-08-03T01:48:34.809Z,1012.53
2022-08-03T01:49:34.857Z,1012.60
2022-08-03T01:50:34.759Z,1012.54
2022-08-03T01:51:57.680Z,1012.51
2022-08-03T01:52:35.746Z,1012.57
2022-08-03T01:53:34.801Z,1012.58
2022-08-03T01:54:34.732Z,1012.59
2022-08-03T01:55:34.777Z,1012.53
2022-08-03T01:56:34.740Z,1012.59
2022-08-03T01:57:34.825Z,1012.54
2022-08-03T01:58:35.661Z,1012.54
2022-08-03T01:59:34.714Z,1012.53
2022-08-03T02:00:34.671Z,1012.47
2022-08-03T02:02:27.683Z,1012.40
2022-08-03T02:02:36.218Z,1012.49
2022-08-03T02:03:35.443Z,1012.44
2022-08-03T02:04:34.671Z,1012.42
2022-08-03T02:05:35.782Z,1012.44
2022-08-03T02:07:00.030Z,1012.49
2022-08-03T02:07:35.536Z,1012.51
2022-08-03T02:08:34.516Z,1012.45
2022-08-03T02:09:34.510Z,1012.40
2022-08-03T02:10:36.014Z,1012.44
2022-08-03T02:11:34.498Z,1012.41
2022-08-03T02:12:34.539Z,1012.43
2022-08-03T02:13:34.509Z,1012.45
2022-08-03T02:14:34.440Z,1012.42
2022-08-03T02:15:34.489Z,1012.42
2022-08-03T02:16:34.773Z,1012.43
2022-08-03T02:17:39.724Z,1012.44
2022-08-03T02:18:35.431Z,1012.49
2022-08-03T02:19:35.838Z,1012.43
2022-08-03T02:20:34.364Z,1012.45
2022-08-03T02:21:57.408Z,1012.46
2022-08-03T02:22:35.417Z,1012.39
2022-08-03T02:23:34.323Z,1012.45
2022-08-03T02:24:34.365Z,1012.52
2022-08-03T02:25:34.282Z,1012.45
2022-08-03T02:26:34.346Z,1012.43
2022-08-03T02:27:34.356Z,1012.39
2022-08-03T02:28:34.401Z,1012.39
2022-08-03T02:29:39.734Z,1012.42
2022-08-03T02:30:35.241Z,1012.39
2022-08-03T02:31:34.290Z,1012.40
2022-08-03T02:32:34.248Z,1012.33
2022-08-03T02:33:34.340Z,1012.36
2022-08-03T02:34:34.235Z,1012.42
2022-08-03T02:35:34.161Z,1012.36
2022-08-03T02:36:34.177Z,1012.37
2022-08-03T02:37:34.134Z,1012.35
2022-08-03T02:38:34.129Z,1012.34
2022-08-03T02:39:34.105Z,1012.34
2022-08-03T02:40:34.100Z,1012.38
2022-08-03T02:41:34.148Z,1012.40
2022-08-03T02:42:34.148Z,1012.31
2022-08-03T02:43:40.225Z,1012.37
2022-08-03T02:44:35.953Z,1012.35
2022-08-03T02:45:34.116Z,1012.37
2022-08-03T02:46:34.099Z,1012.32
2022-08-03T02:47:53.463Z,1012.36
2022-08-03T02:48:35.030Z,1012.25
2022-08-03T02:49:42.709Z,1012.35
2022-08-03T02:50:35.004Z,1012.31
2022-08-03T02:51:34.145Z,1012.33
2022-08-03T02:52:33.959Z,1012.34
2022-08-03T02:53:34.061Z,1012.34
2022-08-03T02:54:33.920Z,1012.32
2022-08-03T02:55:33.917Z,1012.33
2022-08-03T02:56:34.048Z,1012.34
2022-08-03T02:57:34.705Z,1012.30
2022-08-03T02:58:33.858Z,1012.27
2022-08-03T02:59:33.897Z,1012.31
2022-08-03T03:00:33.963Z,1012.31
2022-08-03T03:01:35.120Z,1012.29
2022-08-03T03:02:33.821Z,1012.29
2022-08-03T03:03:37.257Z,1012.28
2022-08-03T03:04:34.804Z,1012.25
2022-08-03T03:05:54.594Z,1012.36
2022-08-03T03:06:34.782Z,1012.36
2022-08-03T03:07:39.802Z,1012.30
2022-08-03T03:08:34.796Z,1012.32
2022-08-03T03:09:41.712Z,1012.33
2022-08-03T03:10:34.727Z,1012.31
2022-08-03T03:11:33.703Z,1012.31
2022-08-03T03:12:33.780Z,1012.31
2022-08-03T03:13:33.780Z,1012.33
2022-08-03T03:14:34.210Z,1012.28
2022-08-03T03:15:33.700Z,1012.26
2022-08-03T03:16:33.666Z,1012.29
2022-08-03T03:17:33.630Z,1012.31
2022-08-03T03:18:33.977Z,1012.25
2022-08-03T03:19:33.610Z,1012.29
2022-08-03T03:20:33.695Z,1012.31
2022-08-03T03:21:33.620Z,1012.29
2022-08-03T03:22:33.549Z,1012.34
2022-08-03T03:23:34.070Z,1012.29
2022-08-03T03:24:34.201Z,1012.28
2022-08-03T03:25:33.531Z,1012.34
2022-08-03T03:26:33.511Z,1012.33
2022-08-03T03:27:34.191Z,1012.34
2022-08-03T03:28:34.355Z,1012.34
2022-08-03T03:29:39.486Z,1012.34
2022-08-03T03:30:34.440Z,1012.35
2022-08-03T03:31:33.529Z,1012.36
2022-08-03T03:32:33.494Z,1012.39
2022-08-03T03:33:33.412Z,1012.36
2022-08-03T03:34:33.422Z,1012.36
2022-08-03T03:35:38.948Z,1012.41
2022-08-03T03:36:34.431Z,1012.37
2022-08-03T03:37:34.052Z,1012.40
2022-08-03T03:38:33.352Z,1012.43
2022-08-03T03:39:33.449Z,1012.37
2022-08-03T03:40:33.313Z,1012.36
2022-08-03T03:41:37.736Z,1012.32
2022-08-03T03:42:33.305Z,1012.31
2022-08-03T03:43:33.401Z,1012.37
2022-08-03T03:44:33.353Z,1012.34
2022-08-03T03:45:33.291Z,1012.31
2022-08-03T03:46:33.955Z,1012.32
2022-08-03T03:47:33.358Z,1012.35
2022-08-03T03:48:33.227Z,1012.39
2022-08-03T03:49:33.249Z,1012.34
2022-08-03T03:50:33.229Z,1012.37
2022-08-03T03:51:33.406Z,1012.32
2022-08-03T03:52:33.225Z,1012.35
2022-08-03T03:53:33.186Z,1012.35
2022-08-03T03:54:33.185Z,1012.42
2022-08-03T03:55:33.174Z,1012.44
2022-08-03T03:56:34.141Z,1012.39
2022-08-03T03:57:33.093Z,1012.42
2022-08-03T03:58:33.772Z,1012.39
2022-08-03T03:59:33.065Z,1012.43
2022-08-03T04:00:33.157Z,1012.43
2022-08-03T04:01:34.078Z,1012.42
2022-08-03T04:02:33.077Z,1012.38
2022-08-03T04:03:33.736Z,1012.36
2022-08-03T04:04:33.098Z,1012.34
2022-08-03T04:05:33.004Z,1012.40
2022-08-03T04:06:33.052Z,1012.39
2022-08-03T04:07:32.986Z,1012.34
2022-08-03T04:08:32.957Z,1012.34
2022-08-03T04:09:32.976Z,1012.39
2022-08-03T04:10:33.172Z,1012.37
2022-08-03T04:11:32.946Z,1012.40
2022-08-03T04:12:32.971Z,1012.43
2022-08-03T04:13:32.887Z,1012.44
2022-08-03T04:14:32.883Z,1012.36
2022-08-03T04:15:33.815Z,1012.37
2022-08-03T04:16:33.019Z,1012.35
2022-08-03T04:17:32.918Z,1012.41
2022-08-03T04:18:33.580Z,1012.39
2022-08-03T04:19:32.866Z,1012.40
2022-08-03T04:20:32.802Z,1012.39
2022-08-03T04:21:32.848Z,1012.44
2022-08-03T04:22:32.824Z,1012.37
2022-08-03T04:23:32.764Z,1012.39
2022-08-03T04:24:33.070Z,1012.38
2022-08-03T04:25:32.723Z,1012.44
2022-08-03T04:26:32.771Z,1012.46
2022-08-03T04:27:32.723Z,1012.42
2022-08-03T04:28:32.788Z,1012.45
2022-08-03T04:29:32.670Z,1012.38
2022-08-03T04:30:32.698Z,1012.44
2022-08-03T04:31:32.681Z,1012.43
2022-08-03T04:32:32.688Z,1012.37
2022-08-03T04:33:32.640Z,1012.44
2022-08-03T04:34:32.635Z,1012.43
2022-08-03T04:36:01.594Z,1012.42
2022-08-03T04:36:33.583Z,1012.42
2022-08-03T04:37:32.689Z,1012.41
2022-08-03T04:38:32.574Z,1012.43
2022-08-03T04:39:32.553Z,1012.44
2022-08-03T04:40:32.535Z,1012.44
2022-08-03T04:41:32.589Z,1012.42
2022-08-03T04:42:33.535Z,1012.40
2022-08-03T04:43:32.554Z,1012.46
2022-08-03T04:44:32.576Z,1012.45
2022-08-03T04:45:32.537Z,1012.45
2022-08-03T04:46:32.448Z,1012.47
2022-08-03T04:47:32.450Z,1012.46
2022-08-03T04:48:33.384Z,1012.49
2022-08-03T04:49:32.483Z,1012.45
2022-08-03T04:50:32.413Z,1012.53
2022-08-03T04:51:32.394Z,1012.50
2022-08-03T04:52:32.443Z,1012.49
2022-08-03T04:53:32.394Z,1012.50
2022-08-03T04:54:33.322Z,1012.45
2022-08-03T04:55:32.507Z,1012.47
2022-08-03T04:56:32.378Z,1012.49
2022-08-03T04:57:32.644Z,1012.50
2022-08-03T04:58:32.293Z,1012.52
2022-08-03T04:59:32.312Z,1012.53
2022-08-03T05:00:32.271Z,1012.53
2022-08-03T05:01:32.706Z,1012.49
2022-08-03T05:02:32.445Z,1012.47
2022-08-03T05:03:32.246Z,1012.49
2022-08-03T05:04:32.232Z,1012.49
2022-08-03T05:05:48.814Z,1012.53
2022-08-03T05:06:33.288Z,1012.55
2022-08-03T05:07:35.538Z,1012.56
2022-08-03T05:08:32.168Z,1012.58
2022-08-03T05:09:50.031Z,1012.55
2022-08-03T05:10:33.166Z,1012.56
2022-08-03T05:11:32.192Z,1012.52
2022-08-03T05:12:32.992Z,1012.52
2022-08-03T05:13:32.167Z,1012.53
2022-08-03T05:14:32.110Z,1012.54
2022-08-03T05:15:32.092Z,1012.56
2022-08-03T05:16:32.090Z,1012.49
2022-08-03T05:17:32.047Z,1012.53
2022-08-03T05:18:32.135Z,1012.60
2022-08-03T05:19:32.057Z,1012.50
2022-08-03T05:20:32.712Z,1012.53
2022-08-03T05:21:50.379Z,1012.56
2022-08-03T05:22:32.995Z,1012.50
2022-08-03T05:23:32.345Z,1012.52
2022-08-03T05:24:31.980Z,1012.50
2022-08-03T05:25:32.641Z,1012.55
2022-08-03T05:26:31.964Z,1012.54
2022-08-03T05:27:32.005Z,1012.53
2022-08-03T05:28:32.152Z,1012.49
2022-08-03T05:29:32.023Z,1012.50
2022-08-03T05:30:34.319Z,1012.49
2022-08-03T05:31:31.873Z,1012.53
2022-08-03T05:32:31.852Z,1012.53
2022-08-03T05:33:31.893Z,1012.50
2022-08-03T05:34:31.863Z,1012.53
2022-08-03T05:36:00.609Z,1012.54
2022-08-03T05:36:32.880Z,1012.51
2022-08-03T05:37:33.610Z,1012.55
2022-08-03T05:38:34.012Z,1012.57
2022-08-03T05:39:31.807Z,1012.51
2022-08-03T05:40:31.797Z,1012.58
2022-08-03T05:41:37.096Z,1012.56
2022-08-03T05:42:32.724Z,1012.56
2022-08-03T05:43:31.826Z,1012.56
2022-08-03T05:44:31.754Z,1012.54
2022-08-03T05:45:31.750Z,1012.51
2022-08-03T05:46:34.730Z,1012.56
2022-08-03T05:47:32.376Z,1012.49
2022-08-03T05:48:31.670Z,1012.61
2022-08-03T05:49:31.726Z,1012.55
2022-08-03T05:50:32.653Z,1012.45
2022-08-03T05:51:31.612Z,1012.47
2022-08-03T05:52:31.609Z,1012.51
2022-08-03T05:53:31.622Z,1012.52
2022-08-03T05:54:56.306Z,1012.47
2022-08-03T05:55:32.930Z,1012.46
2022-08-03T05:56:32.083Z,1012.44
2022-08-03T05:57:31.548Z,1012.45
2022-08-03T05:58:31.518Z,1012.49
2022-08-03T05:59:38.814Z,1012.47
2022-08-03T06:00:32.515Z,1012.48
2022-08-03T06:01:31.538Z,1012.46
2022-08-03T06:02:31.538Z,1012.46
2022-08-03T06:03:31.493Z,1012.49
2022-08-03T06:04:31.461Z,1012.48
2022-08-03T06:05:31.485Z,1012.48
2022-08-03T06:06:32.443Z,1012.47
2022-08-03T06:07:31.539Z,1012.45
2022-08-03T06:08:32.057Z,1012.45
2022-08-03T06:10:34.410Z,1012.48
2022-08-03T06:10:35.857Z,1012.43
2022-08-03T06:11:32.361Z,1012.37
2022-08-03T06:12:31.480Z,1012.36
2022-08-03T06:13:31.446Z,1012.41
2022-08-03T06:14:31.324Z,1012.40
2022-08-03T06:15:31.365Z,1012.35
2022-08-03T06:16:31.564Z,1012.41
2022-08-03T06:17:37.718Z,1012.36
2022-08-03T06:18:32.271Z,1012.34
2022-08-03T06:19:31.268Z,1012.36
2022-08-03T06:20:31.338Z,1012.42
2022-08-03T06:21:31.222Z,1012.36
2022-08-03T06:22:31.289Z,1012.39
2022-08-03T06:23:53.128Z,1012.37
2022-08-03T06:24:32.180Z,1012.42
2022-08-03T06:25:31.457Z,1012.41
2022-08-03T06:26:31.773Z,1012.34
2022-08-03T06:27:36.739Z,1012.32
2022-08-03T06:28:53.303Z,1012.44
2022-08-03T06:29:32.117Z,1012.35
2022-08-03T06:30:31.122Z,1012.36
2022-08-03T06:31:33.842Z,1012.43
2022-08-03T06:32:31.080Z,1012.44
2022-08-03T06:34:29.100Z,1012.43
2022-08-03T06:34:35.694Z,1012.45
2022-08-03T06:35:31.733Z,1012.40
2022-08-03T06:36:31.052Z,1012.46
2022-08-03T06:37:31.028Z,1012.35
2022-08-03T06:38:31.023Z,1012.47
2022-08-03T06:39:31.691Z,1012.48
2022-08-03T06:40:30.979Z,1012.43
2022-08-03T06:41:31.004Z,1012.47
2022-08-03T06:42:31.962Z,1012.46
2022-08-03T06:43:30.964Z,1012.48
2022-08-03T06:44:31.944Z,1012.49
2022-08-03T06:45:32.061Z,1012.45
2022-08-03T06:46:30.928Z,1012.45
2022-08-03T06:47:30.916Z,1012.40
2022-08-03T06:48:31.644Z,1012.38
2022-08-03T06:49:30.948Z,1012.42
2022-08-03T06:50:30.932Z,1012.43
2022-08-03T06:52:04.505Z,1012.45
2022-08-03T06:52:38.096Z,1012.48
2022-08-03T06:53:31.850Z,1012.44
2022-08-03T06:54:33.273Z,1012.48
2022-08-03T06:55:34.726Z,1012.53
2022-08-03T06:56:31.756Z,1012.50
2022-08-03T06:57:30.810Z,1012.54
2022-08-03T06:58:30.778Z,1012.53
2022-08-03T07:00:07.822Z,1012.53
2022-08-03T07:00:31.714Z,1012.50
2022-08-03T07:01:30.813Z,1012.55
2022-08-03T07:02:30.889Z,1012.60
2022-08-03T07:03:30.703Z,1012.54
2022-08-03T07:04:30.681Z,1012.62
2022-08-03T07:05:30.743Z,1012.59
2022-08-03T07:06:30.638Z,1012.57
2022-08-03T07:07:30.633Z,1012.62
2022-08-03T07:08:33.338Z,1012.60
2022-08-03T07:09:30.659Z,1012.63
2022-08-03T07:10:34.564Z,1012.65
2022-08-03T07:11:30.590Z,1012.62
2022-08-03T07:12:30.629Z,1012.65
2022-08-03T07:13:30.545Z,1012.74
2022-08-03T07:14:30.575Z,1012.82
2022-08-03T07:15:54.129Z,1012.65
2022-08-03T07:16:31.523Z,1012.70
2022-08-03T07:17:30.512Z,1012.65
2022-08-03T07:18:30.517Z,1012.65
2022-08-03T07:19:30.526Z,1012.70
2022-08-03T07:20:32.614Z,1012.68
2022-08-03T07:21:30.465Z,1012.69
2022-08-03T07:22:30.470Z,1012.66
2022-08-03T07:23:30.447Z,1012.77
2022-08-03T07:24:30.464Z,1012.81
2022-08-03T07:25:30.491Z,1012.73
2022-08-03T07:26:30.371Z,1012.76
2022-08-03T07:27:30.417Z,1012.72
2022-08-03T07:28:30.371Z,1012.79
2022-08-03T07:29:30.362Z,1012.76
2022-08-03T07:30:30.339Z,1012.71
2022-08-03T07:31:34.234Z,1012.70
2022-08-03T07:32:30.293Z,1012.64
2022-08-03T07:33:30.287Z,1012.73
2022-08-03T07:34:30.298Z,1012.76
2022-08-03T07:35:30.281Z,1012.65
2022-08-03T07:36:30.240Z,1012.72
2022-08-03T07:37:30.233Z,1012.68
2022-08-03T07:38:30.254Z,1012.71
2022-08-03T07:39:30.242Z,1012.68
2022-08-03T07:40:31.676Z,1012.68
2022-08-03T07:41:30.183Z,1012.67
2022-08-03T07:42:30.168Z,1012.66
2022-08-03T07:43:30.178Z,1012.70
2022-08-03T07:44:30.133Z,1012.61
2022-08-03T07:45:30.137Z,1012.71
2022-08-03T07:46:30.129Z,1012.69
2022-08-03T07:47:35.246Z,1012.64
2022-08-03T07:48:31.124Z,1012.64
2022-08-03T07:49:30.181Z,1012.71
2022-08-03T07:50:30.089Z,1012.72
2022-08-03T07:51:30.070Z,1012.79
2022-08-03T07:52:30.045Z,1012.72
2022-08-03T07:53:30.052Z,1012.68
2022-08-03T07:54:30.033Z,1012.66
2022-08-03T07:55:30.072Z,1012.58
2022-08-03T07:56:30.013Z,1012.68
2022-08-03T07:57:29.979Z,1012.62
2022-08-03T07:58:29.982Z,1012.71
2022-08-03T07:59:57.081Z,1012.63
2022-08-03T08:00:30.960Z,1012.56
2022-08-03T08:01:30.037Z,1012.66
2022-08-03T08:02:29.923Z,1012.60
2022-08-03T08:03:29.921Z,1012.65
2022-08-03T08:04:30.934Z,1012.62
2022-08-03T08:05:30.115Z,1012.66
2022-08-03T08:06:29.878Z,1012.58
2022-08-03T08:07:29.870Z,1012.63
2022-08-03T08:08:29.860Z,1012.68
2022-08-03T08:09:29.906Z,1012.60
2022-08-03T08:10:29.844Z,1012.67
2022-08-03T08:11:29.849Z,1012.61
2022-08-03T08:12:29.810Z,1012.73
2022-08-03T08:13:29.802Z,1012.57
2022-08-03T08:14:29.779Z,1012.62
2022-08-03T08:15:29.763Z,1012.63
2022-08-03T08:16:30.746Z,1012.59
2022-08-03T08:17:29.734Z,1012.57
2022-08-03T08:18:29.746Z,1012.58
2022-08-03T08:19:29.726Z,1012.63
2022-08-03T08:20:31.282Z,1012.63
2022-08-03T08:21:53.261Z,1012.60
2022-08-03T08:22:31.435Z,1012.80
2022-08-03T08:23:41.984Z,1012.67
2022-08-03T08:24:30.627Z,1012.59
2022-08-03T08:25:29.692Z,1012.74
2022-08-03T08:26:29.622Z,1012.71
2022-08-03T08:28:30.890Z,1012.57
2022-08-03T08:28:33.736Z,1012.59
2022-08-03T08:29:29.572Z,1012.69
2022-08-03T08:30:29.580Z,1012.60
2022-08-03T08:31:29.541Z,1012.60
2022-08-03T08:32:29.531Z,1012.72
2022-08-03T08:33:47.878Z,1012.61
2022-08-03T08:34:34.436Z,1012.54
2022-08-03T08:35:29.494Z,1012.55
2022-08-03T08:36:29.490Z,1012.67
2022-08-03T08:37:29.464Z,1012.53
2022-08-03T08:38:29.444Z,1012.52
2022-08-03T08:39:29.442Z,1012.55
2022-08-03T08:40:29.436Z,1012.52
2022-08-03T08:41:32.052Z,1012.57
2022-08-03T08:42:29.409Z,1012.58
2022-08-03T08:43:29.384Z,1012.62
2022-08-03T08:44:29.364Z,1012.65
2022-08-03T08:45:29.426Z,1012.54
2022-08-03T08:46:29.356Z,1012.67
2022-08-03T08:47:29.356Z,1012.55
2022-08-03T08:48:30.327Z,1012.61
2022-08-03T08:49:29.371Z,1012.60
2022-08-03T08:50:29.408Z,1012.65
2022-08-03T08:51:50.607Z,1012.65
2022-08-03T08:52:32.157Z,1012.66
2022-08-03T08:53:29.250Z,1012.61
2022-08-03T08:54:29.244Z,1012.68
2022-08-03T08:55:29.375Z,1012.68
2022-08-03T08:56:29.220Z,1012.68
2022-08-03T08:57:42.279Z,1012.69
2022-08-03T08:58:30.210Z,1012.61
2022-08-03T08:59:48.481Z,1012.60
2022-08-03T09:00:30.185Z,1012.55
2022-08-03T09:01:32.924Z,1012.68
2022-08-03T09:02:29.172Z,1012.68
2022-08-03T09:03:30.576Z,1012.71
2022-08-03T09:04:29.109Z,1012.58
2022-08-03T09:05:54.624Z,1012.60
2022-08-03T09:06:30.121Z,1012.58
2022-08-03T09:07:30.193Z,1012.65
2022-08-03T09:08:29.070Z,1012.64
2022-08-03T09:10:07.539Z,1012.64
2022-08-03T09:10:30.051Z,1012.65
2022-08-03T09:11:52.453Z,1012.63
2022-08-03T09:12:41.530Z,1012.67
2022-08-03T09:13:30.021Z,1012.64
2022-08-03T09:14:36.616Z,1012.60
2022-08-03T09:15:29.981Z,1012.54
2022-08-03T09:16:29.030Z,1012.59
2022-08-03T09:17:29.012Z,1012.66
2022-08-03T09:18:29.321Z,1012.59
2022-08-03T09:19:28.905Z,1012.60
2022-08-03T09:20:28.909Z,1012.54
2022-08-03T09:21:33.235Z,1012.61
2022-08-03T09:22:29.894Z,1012.59
2022-08-03T09:23:51.653Z,1012.51
2022-08-03T09:24:41.036Z,1012.63
2022-08-03T09:25:29.844Z,1012.64
2022-08-03T09:26:28.925Z,1012.54
2022-08-03T09:27:28.874Z,1012.62
2022-08-03T09:28:59.859Z,1012.59
2022-08-03T09:29:29.812Z,1012.64
2022-08-03T09:30:34.625Z,1012.50
2022-08-03T09:31:29.785Z,1012.53
2022-08-03T09:32:28.753Z,1012.53
2022-08-03T09:33:36.139Z,1012.47
2022-08-03T09:34:29.733Z,1012.57
2022-08-03T09:35:51.541Z,1012.66
2022-08-03T09:36:29.727Z,1012.56
2022-08-03T09:38:14.084Z,1012.55
2022-08-03T09:38:29.687Z,1012.58
2022-08-03T09:39:41.709Z,1012.50
2022-08-03T09:40:29.660Z,1012.50
2022-08-03T09:41:28.629Z,1012.52
2022-08-03T09:42:28.655Z,1012.58
2022-08-03T09:43:28.650Z,1012.63
2022-08-03T09:44:28.612Z,1012.55
2022-08-03T09:45:28.607Z,1012.59
2022-08-03T09:46:28.640Z,1012.62
2022-08-03T09:47:28.587Z,1012.59
2022-08-03T09:48:28.581Z,1012.54
2022-08-03T09:49:28.629Z,1012.59
2022-08-03T09:50:28.542Z,1012.42
2022-08-03T09:52:04.963Z,1012.60
2022-08-03T09:52:38.063Z,1012.54
2022-08-03T09:53:29.500Z,1012.53
2022-08-03T09:54:28.483Z,1012.50
2022-08-03T09:56:34.346Z,1012.44
2022-08-03T09:56:35.912Z,1012.62
2022-08-03T09:57:29.492Z,1012.53
2022-08-03T09:58:28.440Z,1012.58
2022-08-03T09:59:28.414Z,1013.02
2022-08-03T10:00:28.392Z,1012.48
2022-08-03T10:01:28.532Z,1012.55
2022-08-03T10:02:28.415Z,1012.55
2022-08-03T10:03:28.374Z,1012.48
2022-08-03T10:04:28.359Z,1012.48
2022-08-03T10:05:28.340Z,1012.49
2022-08-03T10:06:28.956Z,1012.50
2022-08-03T10:07:28.317Z,1012.43
2022-08-03T10:08:28.360Z,1012.46
2022-08-03T10:09:28.282Z,1012.48
2022-08-03T10:10:30.371Z,1012.45
2022-08-03T10:11:28.273Z,1012.65
2022-08-03T10:12:28.264Z,1012.44
2022-08-03T10:13:28.257Z,1012.50
2022-08-03T10:14:28.231Z,1012.46
2022-08-03T10:16:24.209Z,1012.43
2022-08-03T10:16:29.191Z,1012.39
2022-08-03T10:17:28.183Z,1012.44
2022-08-03T10:18:28.202Z,1012.24
2022-08-03T10:19:28.162Z,1012.50
2022-08-03T10:20:28.182Z,1012.42
2022-08-03T10:21:28.128Z,1012.36
2022-08-03T10:22:28.119Z,1012.28
2022-08-03T10:23:33.181Z,1012.32
2022-08-03T10:24:29.089Z,1012.41
2022-08-03T10:25:32.986Z,1012.27
2022-08-03T10:26:29.064Z,1012.39
2022-08-03T10:27:28.064Z,1012.43
2022-08-03T10:28:28.064Z,1012.55
2022-08-03T10:29:28.079Z,1012.34
2022-08-03T10:30:28.018Z,1012.33
2022-08-03T10:31:28.067Z,1012.42
2022-08-03T10:32:27.995Z,1012.29
2022-08-03T10:33:51.511Z,1012.46
2022-08-03T10:34:28.982Z,1012.29
2022-08-03T10:35:27.948Z,1012.23
2022-08-03T10:36:28.159Z,1012.28
2022-08-03T10:37:27.940Z,1012.22
2022-08-03T10:38:27.925Z,1012.26
2022-08-03T10:39:27.889Z,1012.27
2022-08-03T10:40:55.801Z,1012.24
2022-08-03T10:41:28.900Z,1012.32
2022-08-03T10:42:27.862Z,1012.30
2022-08-03T10:43:27.860Z,1012.23
2022-08-03T10:44:27.857Z,1012.21
2022-08-03T10:45:27.829Z,1012.17
2022-08-03T10:46:27.813Z,1012.20
2022-08-03T10:47:27.794Z,1012.19
2022-08-03T10:48:27.796Z,1012.39
2022-08-03T10:49:34.393Z,1012.15
2022-08-03T10:50:28.778Z,1012.24
2022-08-03T10:51:27.755Z,1012.17
2022-08-03T10:52:33.737Z,1012.16
2022-08-03T10:53:28.731Z,1012.18
2022-08-03T10:54:27.937Z,1012.21
2022-08-03T10:55:27.693Z,1012.21
2022-08-03T10:56:27.693Z,1012.14
2022-08-03T10:57:28.681Z,1012.26
2022-08-03T10:58:30.813Z,1012.21
2022-08-03T10:59:28.279Z,1012.18
2022-08-03T11:00:27.716Z,1012.16
2022-08-03T11:01:27.626Z,1012.17
2022-08-03T11:02:28.714Z,1012.31
2022-08-03T11:03:27.615Z,1012.17
2022-08-03T11:04:27.610Z,1012.27
2022-08-03T11:05:27.587Z,1012.31
2022-08-03T11:06:28.367Z,1012.18
2022-08-03T11:07:28.596Z,1012.14
2022-08-03T11:08:27.532Z,1012.11
2022-08-03T11:09:27.526Z,1012.11
2022-08-03T11:10:31.532Z,1012.19
2022-08-03T11:11:27.503Z,1012.23
2022-08-03T11:12:30.194Z,1012.09
2022-08-03T11:13:27.482Z,1012.20
2022-08-03T11:14:27.476Z,1012.21
2022-08-03T11:15:31.742Z,1012.42
2022-08-03T11:16:27.535Z,1012.18
2022-08-03T11:17:27.424Z,1012.12
2022-08-03T11:18:27.486Z,1012.09
2022-08-03T11:19:27.757Z,1012.11
2022-08-03T11:20:27.391Z,1012.05
2022-08-03T11:21:30.344Z,1012.14
2022-08-03T11:22:27.360Z,1012.15
2022-08-03T11:24:04.859Z,1012.11
2022-08-03T11:24:28.396Z,1012.08
2022-08-03T11:25:53.559Z,1012.04
2022-08-03T11:26:28.360Z,1011.98
2022-08-03T11:27:27.302Z,1012.09
2022-08-03T11:28:27.299Z,1012.03
2022-08-03T11:29:27.306Z,1012.06
2022-08-03T11:30:27.744Z,1012.18
2022-08-03T11:32:28.238Z,1012.11
2022-08-03T11:33:27.221Z,1012.10
2022-08-03T11:34:27.246Z,1012.04
2022-08-03T11:35:27.232Z,1012.01
2022-08-03T11:36:32.412Z,1012.14
2022-08-03T11:37:33.157Z,1012.08
2022-08-03T11:38:28.169Z,1012.05
2022-08-03T11:39:27.159Z,1012.10
2022-08-03T11:40:27.143Z,1011.98
2022-08-03T11:41:27.121Z,1011.97
2022-08-03T11:42:27.115Z,1011.93
2022-08-03T11:43:30.819Z,1011.96
2022-08-03T11:44:27.073Z,1011.93
2022-08-03T11:45:27.084Z,1011.91
2022-08-03T11:46:29.342Z,1011.99
2022-08-03T11:47:27.080Z,1011.84
2022-08-03T11:48:27.032Z,1012.04
2022-08-03T11:49:27.031Z,1011.96
2022-08-03T11:50:27.025Z,1011.92
2022-08-03T11:51:27.015Z,1011.84
2022-08-03T11:52:28.737Z,1011.79
2022-08-03T11:53:26.975Z,1011.90
2022-08-03T11:54:26.977Z,1011.87
2022-08-03T11:55:30.588Z,1011.92
2022-08-03T11:56:26.929Z,1011.95
2022-08-03T11:58:58.106Z,1011.83
2022-08-03T11:59:01.382Z,1011.90
2022-08-03T11:59:27.913Z,1011.82
2022-08-03T12:00:26.903Z,1011.81
2022-08-03T12:01:26.887Z,1011.81
2022-08-03T12:02:26.878Z,1011.83
2022-08-03T12:03:26.941Z,1011.77
2022-08-03T12:04:26.845Z,1011.73
2022-08-03T12:05:26.857Z,1011.82
2022-08-03T12:06:27.039Z,1011.79